This is the latest recevied weather packets stored in our database for station/object CA2JAT-13. If no packets are shown the sender has not sent any weather packets the latest 10 day(s).
| Time | Temp. | Humidity | Pressure | Rain* | Wind** | Luminosity | Snow |
|---|---|---|---|---|---|---|---|
| 1788265021 | 68° F | 13% | 764.3 mmHg | 0 in | - | 88 W/m² | - |
| 1788263218 | 67° F | 14% | 764 mmHg | 0 in | - | 50 W/m² | - |
| 1788261416 | 66° F | 17% | 764.3 mmHg | 0 in | - | 0 W/m² | - |
| 1788259613 | 65° F | 19% | 764.8 mmHg | 0 in | - | 0 W/m² | - |
| 1788257811 | 55° F | 52% | 766.1 mmHg | 0 in | - | 0 W/m² | - |
| 1788256008 | 53° F | 66% | 766.6 mmHg | 0 in | - | 0 W/m² | - |
| 1788254205 | 50° F | 85% | 767.2 mmHg | 0 in | - | 0 W/m² | - |
| 1788252403 | 47° F | 99% | 767.6 mmHg | 0 in | - | 0 W/m² | - |
| 1788250601 | 48° F | 99% | 767.8 mmHg | 0 in | - | 0 W/m² | - |
| 1788248798 | 45° F | 99% | 768.6 mmHg | 0 in | - | 0 W/m² | - |
| 1788246996 | 45° F | 99% | 768.7 mmHg | 0 in | - | 0 W/m² | - |
| 1788245194 | 46° F | 99% | 769.2 mmHg | 0 in | - | 0 W/m² | - |
| 1788243391 | 47° F | 99% | 769.2 mmHg | 0 in | - | 0 W/m² | - |
| 1788241588 | 47° F | 98% | 769.4 mmHg | 0 in | - | 0 W/m² | - |
| 1788239786 | 48° F | 98% | 769.4 mmHg | 0 in | - | 0 W/m² | - |
| 1788237983 | 48° F | 99% | 768.8 mmHg | 0 in | - | 0 W/m² | - |
| 1788236181 | 48° F | 99% | 768.5 mmHg | 0 in | - | 0 W/m² | - |
| 1788234378 | 49° F | 92% | 768.2 mmHg | 0 in | - | 0 W/m² | - |
| 1788232576 | 50° F | 90% | 768.7 mmHg | 0 in | - | 0 W/m² | - |
| 1788230774 | 50° F | 88% | 768.7 mmHg | 0 in | - | 0 W/m² | - |
| 1788228972 | 52° F | 85% | 768.4 mmHg | 0 in | - | 0 W/m² | - |
| 1788227119 | 51° F | 85% | 768.5 mmHg | 0 in | - | 0 W/m² | - |
| 1788225317 | 53° F | 81% | 768.4 mmHg | 0 in | - | 0 W/m² | - |
| 1788223515 | 55° F | 74% | 768 mmHg | 0 in | - | 0 W/m² | - |
| 1788221712 | 55° F | 71% | 767.8 mmHg | 0 in | - | 0 W/m² | - |
* Rain latest hour (hover to see other rain measurements)
** Current wind speed in m/s (hover to see current wind gust speed)